sensor_id;sensor_type;location;lat;lon;timestamp;P1;durP1;ratioP1;P2;durP2;ratioP2
4700;SDS011;8724;51.272;6.554;2022-09-12T00:01:15;10.47;;;9.50;;
4700;SDS011;8724;51.272;6.554;2022-09-12T00:03:45;11.30;;;10.17;;
4700;SDS011;8724;51.272;6.554;2022-09-12T00:06:16;10.17;;;9.17;;
4700;SDS011;8724;51.272;6.554;2022-09-12T00:08:48;10.90;;;8.97;;
4700;SDS011;8724;51.272;6.554;2022-09-12T00:11:17;10.47;;;9.40;;
4700;SDS011;8724;51.272;6.554;2022-09-12T00:13:45;14.77;;;10.73;;
4700;SDS011;8724;51.272;6.554;2022-09-12T00:16:14;13.60;;;11.77;;
4700;SDS011;8724;51.272;6.554;2022-09-12T00:18:44;13.57;;;10.70;;
4700;SDS011;8724;51.272;6.554;2022-09-12T00:21:13;15.83;;;10.47;;
4700;SDS011;8724;51.272;6.554;2022-09-12T00:23:44;11.13;;;10.03;;
4700;SDS011;8724;51.272;6.554;2022-09-12T00:26:12;10.33;;;9.30;;
4700;SDS011;8724;51.272;6.554;2022-09-12T00:28:42;13.27;;;10.67;;
4700;SDS011;8724;51.272;6.554;2022-09-12T00:31:12;12.13;;;10.80;;
4700;SDS011;8724;51.272;6.554;2022-09-12T00:33:42;11.77;;;10.57;;
4700;SDS011;8724;51.272;6.554;2022-09-12T00:36:12;11.47;;;10.30;;
4700;SDS011;8724;51.272;6.554;2022-09-12T00:38:43;12.70;;;10.30;;
4700;SDS011;8724;51.272;6.554;2022-09-12T00:41:14;13.03;;;10.33;;
4700;SDS011;8724;51.272;6.554;2022-09-12T00:43:44;11.80;;;10.60;;
4700;SDS011;8724;51.272;6.554;2022-09-12T00:46:21;13.90;;;12.50;;
4700;SDS011;8724;51.272;6.554;2022-09-12T00:49:02;15.70;;;11.77;;
4700;SDS011;8724;51.272;6.554;2022-09-12T00:51:34;15.20;;;12.30;;
4700;SDS011;8724;51.272;6.554;2022-09-12T00:54:07;18.27;;;14.00;;
4700;SDS011;8724;51.272;6.554;2022-09-12T00:56:40;25.70;;;13.73;;
4700;SDS011;8724;51.272;6.554;2022-09-12T00:59:11;16.60;;;14.60;;
4700;SDS011;8724;51.272;6.554;2022-09-12T01:01:43;17.67;;;15.70;;
4700;SDS011;8724;51.272;6.554;2022-09-12T01:04:14;16.07;;;13.70;;
4700;SDS011;8724;51.272;6.554;2022-09-12T01:06:44;25.07;;;15.83;;
4700;SDS011;8724;51.272;6.554;2022-09-12T01:09:17;15.63;;;13.23;;
4700;SDS011;8724;51.272;6.554;2022-09-12T01:11:48;19.37;;;14.57;;
4700;SDS011;8724;51.272;6.554;2022-09-12T01:14:18;17.37;;;13.40;;
4700;SDS011;8724;51.272;6.554;2022-09-12T01:16:47;17.97;;;13.33;;
4700;SDS011;8724;51.272;6.554;2022-09-12T01:19:23;17.37;;;15.50;;
4700;SDS011;8724;51.272;6.554;2022-09-12T01:22:10;16.00;;;13.73;;
4700;SDS011;8724;51.272;6.554;2022-09-12T01:24:54;15.57;;;13.10;;
4700;SDS011;8724;51.272;6.554;2022-09-12T01:27:34;19.07;;;15.17;;
4700;SDS011;8724;51.272;6.554;2022-09-12T01:33:14;19.10;;;15.83;;
4700;SDS011;8724;51.272;6.554;2022-09-12T01:35:54;20.20;;;18.00;;
4700;SDS011;8724;51.272;6.554;2022-09-12T01:38:33;23.00;;;16.57;;
4700;SDS011;8724;51.272;6.554;2022-09-12T01:41:13;22.07;;;15.43;;
4700;SDS011;8724;51.272;6.554;2022-09-12T01:43:50;20.10;;;14.23;;
4700;SDS011;8724;51.272;6.554;2022-09-12T01:46:26;17.33;;;15.33;;
4700;SDS011;8724;51.272;6.554;2022-09-12T01:49:00;21.37;;;17.10;;
4700;SDS011;8724;51.272;6.554;2022-09-12T01:51:33;17.07;;;14.50;;
4700;SDS011;8724;51.272;6.554;2022-09-12T01:54:05;22.33;;;17.13;;
4700;SDS011;8724;51.272;6.554;2022-09-12T01:56:38;25.13;;;17.77;;
4700;SDS011;8724;51.272;6.554;2022-09-12T01:59:09;22.30;;;16.13;;
4700;SDS011;8724;51.272;6.554;2022-09-12T02:01:43;20.73;;;17.20;;
4700;SDS011;8724;51.272;6.554;2022-09-12T02:04:18;24.43;;;17.60;;
4700;SDS011;8724;51.272;6.554;2022-09-12T02:06:51;19.33;;;15.50;;
4700;SDS011;8724;51.272;6.554;2022-09-12T02:09:25;20.00;;;15.73;;
4700;SDS011;8724;51.272;6.554;2022-09-12T02:11:58;21.07;;;17.00;;
4700;SDS011;8724;51.272;6.554;2022-09-12T02:14:28;20.23;;;16.97;;
4700;SDS011;8724;51.272;6.554;2022-09-12T02:17:01;21.80;;;16.97;;
4700;SDS011;8724;51.272;6.554;2022-09-12T02:19:36;23.70;;;19.60;;
4700;SDS011;8724;51.272;6.554;2022-09-12T02:22:10;19.67;;;17.53;;
4700;SDS011;8724;51.272;6.554;2022-09-12T02:24:44;20.30;;;17.50;;
4700;SDS011;8724;51.272;6.554;2022-09-12T02:27:15;21.80;;;18.33;;
4700;SDS011;8724;51.272;6.554;2022-09-12T02:29:48;24.00;;;19.30;;
4700;SDS011;8724;51.272;6.554;2022-09-12T02:32:20;30.60;;;20.47;;
4700;SDS011;8724;51.272;6.554;2022-09-12T02:34:57;23.90;;;17.83;;
4700;SDS011;8724;51.272;6.554;2022-09-12T02:37:36;27.27;;;20.97;;
4700;SDS011;8724;51.272;6.554;2022-09-12T02:40:12;29.17;;;23.60;;
4700;SDS011;8724;51.272;6.554;2022-09-12T02:42:41;29.20;;;22.70;;
4700;SDS011;8724;51.272;6.554;2022-09-12T02:45:10;25.03;;;19.00;;
4700;SDS011;8724;51.272;6.554;2022-09-12T02:47:43;25.40;;;20.00;;
4700;SDS011;8724;51.272;6.554;2022-09-12T02:50:15;26.70;;;21.00;;
4700;SDS011;8724;51.272;6.554;2022-09-12T02:52:43;24.77;;;17.20;;
4700;SDS011;8724;51.272;6.554;2022-09-12T02:55:13;26.63;;;19.63;;
4700;SDS011;8724;51.272;6.554;2022-09-12T02:57:42;26.73;;;19.00;;
4700;SDS011;8724;51.272;6.554;2022-09-12T03:00:10;24.00;;;18.33;;
4700;SDS011;8724;51.272;6.554;2022-09-12T03:02:53;33.37;;;19.17;;
4700;SDS011;8724;51.272;6.554;2022-09-12T03:05:46;29.87;;;18.87;;
4700;SDS011;8724;51.272;6.554;2022-09-12T03:08:34;19.93;;;17.00;;
4700;SDS011;8724;51.272;6.554;2022-09-12T03:11:30;18.90;;;15.23;;
4700;SDS011;8724;51.272;6.554;2022-09-12T03:14:17;24.17;;;18.00;;
4700;SDS011;8724;51.272;6.554;2022-09-12T03:16:56;32.20;;;23.80;;
4700;SDS011;8724;51.272;6.554;2022-09-12T03:19:34;34.37;;;21.37;;
4700;SDS011;8724;51.272;6.554;2022-09-12T03:22:17;29.17;;;21.23;;
4700;SDS011;8724;51.272;6.554;2022-09-12T03:24:57;27.97;;;20.17;;
4700;SDS011;8724;51.272;6.554;2022-09-12T03:27:32;30.33;;;23.20;;
4700;SDS011;8724;51.272;6.554;2022-09-12T03:30:03;28.43;;;23.10;;
4700;SDS011;8724;51.272;6.554;2022-09-12T03:32:38;31.67;;;23.83;;
4700;SDS011;8724;51.272;6.554;2022-09-12T03:35:10;33.83;;;24.90;;
4700;SDS011;8724;51.272;6.554;2022-09-12T03:41:40;35.20;;;23.10;;
4700;SDS011;8724;51.272;6.554;2022-09-12T03:44:09;30.93;;;22.27;;
4700;SDS011;8724;51.272;6.554;2022-09-12T03:46:37;33.47;;;24.03;;
4700;SDS011;8724;51.272;6.554;2022-09-12T03:49:05;33.23;;;24.20;;
4700;SDS011;8724;51.272;6.554;2022-09-12T03:51:35;30.93;;;22.97;;
4700;SDS011;8724;51.272;6.554;2022-09-12T03:54:03;33.30;;;22.77;;
4700;SDS011;8724;51.272;6.554;2022-09-12T03:56:31;35.70;;;24.33;;
4700;SDS011;8724;51.272;6.554;2022-09-12T03:59:03;32.60;;;21.63;;
4700;SDS011;8724;51.272;6.554;2022-09-12T04:01:32;27.53;;;21.40;;
4700;SDS011;8724;51.272;6.554;2022-09-12T04:04:00;27.63;;;21.33;;
4700;SDS011;8724;51.272;6.554;2022-09-12T04:06:29;31.87;;;22.00;;
4700;SDS011;8724;51.272;6.554;2022-09-12T04:08:58;22.87;;;20.03;;
4700;SDS011;8724;51.272;6.554;2022-09-12T04:11:27;28.10;;;21.10;;
4700;SDS011;8724;51.272;6.554;2022-09-12T04:13:55;25.73;;;19.97;;
4700;SDS011;8724;51.272;6.554;2022-09-12T04:16:23;33.37;;;19.87;;
4700;SDS011;8724;51.272;6.554;2022-09-12T04:18:52;25.73;;;17.97;;
4700;SDS011;8724;51.272;6.554;2022-09-12T04:21:21;21.17;;;17.30;;
4700;SDS011;8724;51.272;6.554;2022-09-12T04:23:49;25.03;;;16.77;;
4700;SDS011;8724;51.272;6.554;2022-09-12T04:26:19;18.00;;;15.67;;
4700;SDS011;8724;51.272;6.554;2022-09-12T04:28:51;20.70;;;17.50;;
4700;SDS011;8724;51.272;6.554;2022-09-12T04:31:23;21.07;;;16.13;;
4700;SDS011;8724;51.272;6.554;2022-09-12T04:33:52;42.13;;;33.93;;
4700;SDS011;8724;51.272;6.554;2022-09-12T04:36:21;62.00;;;49.50;;
4700;SDS011;8724;51.272;6.554;2022-09-12T04:38:50;65.63;;;52.03;;
4700;SDS011;8724;51.272;6.554;2022-09-12T04:41:21;77.83;;;56.17;;
4700;SDS011;8724;51.272;6.554;2022-09-12T04:43:51;38.17;;;32.30;;
4700;SDS011;8724;51.272;6.554;2022-09-12T04:46:20;30.27;;;24.67;;
4700;SDS011;8724;51.272;6.554;2022-09-12T04:48:48;25.17;;;19.40;;
4700;SDS011;8724;51.272;6.554;2022-09-12T04:51:23;22.40;;;17.50;;
4700;SDS011;8724;51.272;6.554;2022-09-12T04:53:53;17.40;;;15.60;;
4700;SDS011;8724;51.272;6.554;2022-09-12T04:56:24;17.57;;;15.07;;
4700;SDS011;8724;51.272;6.554;2022-09-12T04:58:55;16.53;;;14.13;;
4700;SDS011;8724;51.272;6.554;2022-09-12T05:01:24;15.90;;;12.87;;
4700;SDS011;8724;51.272;6.554;2022-09-12T05:03:54;17.60;;;14.17;;
4700;SDS011;8724;51.272;6.554;2022-09-12T05:06:25;19.40;;;14.50;;
4700;SDS011;8724;51.272;6.554;2022-09-12T05:08:54;16.33;;;14.47;;
4700;SDS011;8724;51.272;6.554;2022-09-12T05:11:26;16.03;;;12.70;;
4700;SDS011;8724;51.272;6.554;2022-09-12T05:14:16;21.40;;;14.67;;
4700;SDS011;8724;51.272;6.554;2022-09-12T05:16:44;21.93;;;16.07;;
4700;SDS011;8724;51.272;6.554;2022-09-12T05:19:15;17.33;;;13.50;;
4700;SDS011;8724;51.272;6.554;2022-09-12T05:21:44;19.03;;;14.17;;
4700;SDS011;8724;51.272;6.554;2022-09-12T05:24:12;78.83;;;62.90;;
4700;SDS011;8724;51.272;6.554;2022-09-12T05:26:42;47.37;;;39.27;;
4700;SDS011;8724;51.272;6.554;2022-09-12T05:29:13;30.60;;;26.20;;
4700;SDS011;8724;51.272;6.554;2022-09-12T05:31:41;23.60;;;18.77;;
4700;SDS011;8724;51.272;6.554;2022-09-12T05:34:10;20.00;;;17.83;;
4700;SDS011;8724;51.272;6.554;2022-09-12T05:36:39;19.20;;;15.40;;
4700;SDS011;8724;51.272;6.554;2022-09-12T05:39:08;17.67;;;14.00;;
4700;SDS011;8724;51.272;6.554;2022-09-12T05:41:36;16.40;;;14.03;;
4700;SDS011;8724;51.272;6.554;2022-09-12T05:44:10;15.47;;;12.70;;
4700;SDS011;8724;51.272;6.554;2022-09-12T05:46:41;13.27;;;11.63;;
4700;SDS011;8724;51.272;6.554;2022-09-12T05:49:12;16.27;;;12.27;;
4700;SDS011;8724;51.272;6.554;2022-09-12T05:51:41;13.20;;;10.37;;
4700;SDS011;8724;51.272;6.554;2022-09-12T05:54:12;13.20;;;11.80;;
4700;SDS011;8724;51.272;6.554;2022-09-12T05:56:42;20.00;;;12.30;;
4700;SDS011;8724;51.272;6.554;2022-09-12T05:59:13;14.83;;;11.23;;
4700;SDS011;8724;51.272;6.554;2022-09-12T06:01:43;14.70;;;13.07;;
4700;SDS011;8724;51.272;6.554;2022-09-12T06:04:12;13.33;;;11.23;;
4700;SDS011;8724;51.272;6.554;2022-09-12T06:06:41;12.57;;;11.27;;
4700;SDS011;8724;51.272;6.554;2022-09-12T06:09:12;12.60;;;10.97;;
4700;SDS011;8724;51.272;6.554;2022-09-12T06:11:42;16.20;;;10.50;;
4700;SDS011;8724;51.272;6.554;2022-09-12T06:14:14;11.10;;;9.90;;
4700;SDS011;8724;51.272;6.554;2022-09-12T06:16:45;15.20;;;11.63;;
4700;SDS011;8724;51.272;6.554;2022-09-12T06:19:15;14.93;;;13.37;;
4700;SDS011;8724;51.272;6.554;2022-09-12T06:21:45;33.73;;;27.97;;
4700;SDS011;8724;51.272;6.554;2022-09-12T06:24:15;32.23;;;26.30;;
4700;SDS011;8724;51.272;6.554;2022-09-12T06:26:44;23.53;;;20.63;;
4700;SDS011;8724;51.272;6.554;2022-09-12T06:29:14;20.53;;;17.93;;
4700;SDS011;8724;51.272;6.554;2022-09-12T06:31:44;17.80;;;15.50;;
4700;SDS011;8724;51.272;6.554;2022-09-12T06:34:14;14.40;;;13.00;;
4700;SDS011;8724;51.272;6.554;2022-09-12T06:36:43;15.40;;;11.97;;
4700;SDS011;8724;51.272;6.554;2022-09-12T06:39:13;12.50;;;11.30;;
4700;SDS011;8724;51.272;6.554;2022-09-12T06:41:43;12.00;;;10.80;;
4700;SDS011;8724;51.272;6.554;2022-09-12T06:44:13;16.77;;;11.70;;
4700;SDS011;8724;51.272;6.554;2022-09-12T06:46:45;11.90;;;10.03;;
4700;SDS011;8724;51.272;6.554;2022-09-12T06:49:14;12.40;;;9.67;;
4700;SDS011;8724;51.272;6.554;2022-09-12T06:51:43;12.17;;;10.37;;
4700;SDS011;8724;51.272;6.554;2022-09-12T06:54:12;11.17;;;9.53;;
4700;SDS011;8724;51.272;6.554;2022-09-12T06:56:42;74.70;;;53.30;;
4700;SDS011;8724;51.272;6.554;2022-09-12T06:59:11;59.83;;;51.33;;
4700;SDS011;8724;51.272;6.554;2022-09-12T07:01:41;41.07;;;34.97;;
4700;SDS011;8724;51.272;6.554;2022-09-12T07:04:10;29.13;;;25.50;;
4700;SDS011;8724;51.272;6.554;2022-09-12T07:06:39;22.17;;;18.17;;
4700;SDS011;8724;51.272;6.554;2022-09-12T07:09:10;15.07;;;13.50;;
4700;SDS011;8724;51.272;6.554;2022-09-12T07:11:42;15.63;;;13.13;;
4700;SDS011;8724;51.272;6.554;2022-09-12T07:14:11;13.40;;;11.27;;
4700;SDS011;8724;51.272;6.554;2022-09-12T07:16:42;14.30;;;11.23;;
4700;SDS011;8724;51.272;6.554;2022-09-12T07:19:11;11.60;;;10.23;;
4700;SDS011;8724;51.272;6.554;2022-09-12T07:21:39;10.80;;;9.70;;
4700;SDS011;8724;51.272;6.554;2022-09-12T07:24:22;11.80;;;10.30;;
4700;SDS011;8724;51.272;6.554;2022-09-12T07:26:51;12.07;;;10.33;;
4700;SDS011;8724;51.272;6.554;2022-09-12T07:29:19;12.10;;;10.47;;
4700;SDS011;8724;51.272;6.554;2022-09-12T07:32:05;11.70;;;9.23;;
4700;SDS011;8724;51.272;6.554;2022-09-12T07:34:34;11.87;;;10.63;;
4700;SDS011;8724;51.272;6.554;2022-09-12T07:37:02;14.17;;;10.87;;
4700;SDS011;8724;51.272;6.554;2022-09-12T07:39:31;9.80;;;8.83;;
4700;SDS011;8724;51.272;6.554;2022-09-12T07:41:59;13.80;;;10.20;;
4700;SDS011;8724;51.272;6.554;2022-09-12T07:44:27;15.43;;;11.30;;
4700;SDS011;8724;51.272;6.554;2022-09-12T07:46:56;12.60;;;11.03;;
4700;SDS011;8724;51.272;6.554;2022-09-12T07:49:26;12.37;;;11.03;;
4700;SDS011;8724;51.272;6.554;2022-09-12T07:51:54;12.63;;;11.33;;
4700;SDS011;8724;51.272;6.554;2022-09-12T07:54:23;12.30;;;11.07;;
4700;SDS011;8724;51.272;6.554;2022-09-12T07:56:51;13.10;;;10.50;;
4700;SDS011;8724;51.272;6.554;2022-09-12T07:59:19;12.27;;;11.07;;
4700;SDS011;8724;51.272;6.554;2022-09-12T08:02:09;14.90;;;10.73;;
4700;SDS011;8724;51.272;6.554;2022-09-12T08:04:45;13.27;;;10.90;;
4700;SDS011;8724;51.272;6.554;2022-09-12T08:07:14;12.50;;;11.10;;
4700;SDS011;8724;51.272;6.554;2022-09-12T08:09:43;14.97;;;12.47;;
4700;SDS011;8724;51.272;6.554;2022-09-12T08:12:11;11.97;;;9.53;;
4700;SDS011;8724;51.272;6.554;2022-09-12T08:14:40;12.73;;;11.47;;
4700;SDS011;8724;51.272;6.554;2022-09-12T08:17:08;12.30;;;10.20;;
4700;SDS011;8724;51.272;6.554;2022-09-12T08:19:36;14.97;;;10.60;;
4700;SDS011;8724;51.272;6.554;2022-09-12T08:22:06;19.27;;;11.30;;
4700;SDS011;8724;51.272;6.554;2022-09-12T08:24:34;16.53;;;11.37;;
4700;SDS011;8724;51.272;6.554;2022-09-12T08:27:04;11.03;;;9.90;;
4700;SDS011;8724;51.272;6.554;2022-09-12T08:29:32;12.50;;;11.00;;
4700;SDS011;8724;51.272;6.554;2022-09-12T08:32:00;13.73;;;10.60;;
4700;SDS011;8724;51.272;6.554;2022-09-12T08:34:29;12.20;;;9.63;;
4700;SDS011;8724;51.272;6.554;2022-09-12T08:36:57;11.40;;;9.63;;
4700;SDS011;8724;51.272;6.554;2022-09-12T08:39:27;12.47;;;10.30;;
4700;SDS011;8724;51.272;6.554;2022-09-12T08:41:56;11.00;;;9.60;;
4700;SDS011;8724;51.272;6.554;2022-09-12T08:44:38;11.03;;;9.50;;
4700;SDS011;8724;51.272;6.554;2022-09-12T08:47:19;9.50;;;8.53;;
4700;SDS011;8724;51.272;6.554;2022-09-12T08:49:56;13.13;;;9.53;;
4700;SDS011;8724;51.272;6.554;2022-09-12T08:52:33;10.47;;;9.37;;
4700;SDS011;8724;51.272;6.554;2022-09-12T08:55:22;11.13;;;10.00;;
4700;SDS011;8724;51.272;6.554;2022-09-12T08:57:58;14.07;;;8.63;;
4700;SDS011;8724;51.272;6.554;2022-09-12T09:00:30;10.43;;;9.17;;
4700;SDS011;8724;51.272;6.554;2022-09-12T09:06:12;9.87;;;8.83;;
4700;SDS011;8724;51.272;6.554;2022-09-12T09:08:54;9.73;;;8.83;;
4700;SDS011;8724;51.272;6.554;2022-09-12T09:11:33;11.90;;;9.20;;
4700;SDS011;8724;51.272;6.554;2022-09-12T09:14:13;10.13;;;9.13;;
4700;SDS011;8724;51.272;6.554;2022-09-12T09:17:18;8.37;;;7.50;;
4700;SDS011;8724;51.272;6.554;2022-09-12T09:19:55;8.70;;;7.87;;
4700;SDS011;8724;51.272;6.554;2022-09-12T09:22:33;10.40;;;9.00;;
4700;SDS011;8724;51.272;6.554;2022-09-12T09:25:08;9.37;;;8.47;;
4700;SDS011;8724;51.272;6.554;2022-09-12T09:27:49;9.40;;;8.47;;
4700;SDS011;8724;51.272;6.554;2022-09-12T09:30:24;8.90;;;8.00;;
4700;SDS011;8724;51.272;6.554;2022-09-12T09:32:53;7.57;;;6.87;;
4700;SDS011;8724;51.272;6.554;2022-09-12T09:35:26;8.80;;;8.00;;
4700;SDS011;8724;51.272;6.554;2022-09-12T09:38:09;8.40;;;7.60;;
4700;SDS011;8724;51.272;6.554;2022-09-12T09:40:47;7.97;;;7.27;;
4700;SDS011;8724;51.272;6.554;2022-09-12T09:43:28;7.00;;;6.40;;
4700;SDS011;8724;51.272;6.554;2022-09-12T09:45:57;9.00;;;7.70;;
4700;SDS011;8724;51.272;6.554;2022-09-12T09:48:26;16.67;;;14.90;;
4700;SDS011;8724;51.272;6.554;2022-09-12T09:50:57;32.57;;;27.63;;
4700;SDS011;8724;51.272;6.554;2022-09-12T09:53:37;25.47;;;22.70;;
4700;SDS011;8724;51.272;6.554;2022-09-12T09:56:11;23.63;;;19.57;;
4700;SDS011;8724;51.272;6.554;2022-09-12T09:58:50;19.07;;;16.77;;
4700;SDS011;8724;51.272;6.554;2022-09-12T10:01:18;17.70;;;15.80;;
4700;SDS011;8724;51.272;6.554;2022-09-12T10:03:47;15.83;;;14.20;;
4700;SDS011;8724;51.272;6.554;2022-09-12T10:06:21;14.47;;;12.80;;
4700;SDS011;8724;51.272;6.554;2022-09-12T10:09:02;12.37;;;11.13;;
4700;SDS011;8724;51.272;6.554;2022-09-12T10:11:33;11.10;;;9.97;;
4700;SDS011;8724;51.272;6.554;2022-09-12T10:14:04;9.67;;;8.67;;
4700;SDS011;8724;51.272;6.554;2022-09-12T10:16:53;8.03;;;7.23;;
4700;SDS011;8724;51.272;6.554;2022-09-12T10:19:31;10.30;;;7.53;;
4700;SDS011;8724;51.272;6.554;2022-09-12T10:22:02;7.00;;;6.23;;
4700;SDS011;8724;51.272;6.554;2022-09-12T10:24:33;11.23;;;6.50;;
4700;SDS011;8724;51.272;6.554;2022-09-12T10:27:06;7.07;;;6.40;;
4700;SDS011;8724;51.272;6.554;2022-09-12T10:29:41;6.83;;;6.23;;
4700;SDS011;8724;51.272;6.554;2022-09-12T10:32:18;6.23;;;5.30;;
4700;SDS011;8724;51.272;6.554;2022-09-12T10:34:57;7.13;;;6.37;;
4700;SDS011;8724;51.272;6.554;2022-09-12T10:37:29;5.53;;;4.87;;
4700;SDS011;8724;51.272;6.554;2022-09-12T10:40:00;4.67;;;4.27;;
4700;SDS011;8724;51.272;6.554;2022-09-12T10:42:41;5.27;;;4.77;;
4700;SDS011;8724;51.272;6.554;2022-09-12T10:45:18;5.33;;;4.83;;
4700;SDS011;8724;51.272;6.554;2022-09-12T10:47:52;5.67;;;4.43;;
4700;SDS011;8724;51.272;6.554;2022-09-12T10:50:22;4.97;;;4.50;;
4700;SDS011;8724;51.272;6.554;2022-09-12T10:53:11;4.57;;;4.17;;
4700;SDS011;8724;51.272;6.554;2022-09-12T10:55:54;6.23;;;4.53;;
4700;SDS011;8724;51.272;6.554;2022-09-12T11:01:35;4.60;;;4.13;;
4700;SDS011;8724;51.272;6.554;2022-09-12T11:04:20;4.43;;;4.00;;
4700;SDS011;8724;51.272;6.554;2022-09-12T11:06:58;4.97;;;4.57;;
4700;SDS011;8724;51.272;6.554;2022-09-12T11:09:46;14.13;;;12.73;;
4700;SDS011;8724;51.272;6.554;2022-09-12T11:12:24;23.23;;;20.77;;
4700;SDS011;8724;51.272;6.554;2022-09-12T11:15:02;19.93;;;17.80;;
4700;SDS011;8724;51.272;6.554;2022-09-12T11:17:46;16.00;;;12.87;;
4700;SDS011;8724;51.272;6.554;2022-09-12T11:23:31;9.87;;;8.87;;
4700;SDS011;8724;51.272;6.554;2022-09-12T11:26:29;7.70;;;7.00;;
4700;SDS011;8724;51.272;6.554;2022-09-12T11:29:12;7.60;;;6.90;;
4700;SDS011;8724;51.272;6.554;2022-09-12T11:31:54;5.73;;;5.23;;
4700;SDS011;8724;51.272;6.554;2022-09-12T11:34:43;6.40;;;5.80;;
4700;SDS011;8724;51.272;6.554;2022-09-12T11:37:27;5.10;;;4.60;;
4700;SDS011;8724;51.272;6.554;2022-09-12T11:40:06;5.00;;;4.33;;
4700;SDS011;8724;51.272;6.554;2022-09-12T11:42:50;9.90;;;8.90;;
4700;SDS011;8724;51.272;6.554;2022-09-12T11:45:22;44.80;;;34.60;;
4700;SDS011;8724;51.272;6.554;2022-09-12T11:47:56;31.93;;;26.67;;
4700;SDS011;8724;51.272;6.554;2022-09-12T11:50:31;24.93;;;21.57;;
4700;SDS011;8724;51.272;6.554;2022-09-12T11:53:03;22.00;;;18.47;;
4700;SDS011;8724;51.272;6.554;2022-09-12T11:55:43;15.43;;;13.60;;
4700;SDS011;8724;51.272;6.554;2022-09-12T11:58:20;11.70;;;10.50;;
4700;SDS011;8724;51.272;6.554;2022-09-12T12:00:53;11.33;;;9.93;;
4700;SDS011;8724;51.272;6.554;2022-09-12T12:03:27;9.97;;;8.97;;
4700;SDS011;8724;51.272;6.554;2022-09-12T12:06:02;7.70;;;6.93;;
4700;SDS011;8724;51.272;6.554;2022-09-12T12:08:36;7.43;;;6.60;;
4700;SDS011;8724;51.272;6.554;2022-09-12T12:11:07;5.13;;;4.73;;
4700;SDS011;8724;51.272;6.554;2022-09-12T12:13:39;4.77;;;4.43;;
4700;SDS011;8724;51.272;6.554;2022-09-12T12:16:13;4.20;;;3.90;;
4700;SDS011;8724;51.272;6.554;2022-09-12T12:18:52;4.10;;;3.80;;
4700;SDS011;8724;51.272;6.554;2022-09-12T12:21:33;3.90;;;3.60;;
4700;SDS011;8724;51.272;6.554;2022-09-12T12:24:15;3.80;;;3.50;;
4700;SDS011;8724;51.272;6.554;2022-09-12T12:26:54;3.77;;;3.40;;
4700;SDS011;8724;51.272;6.554;2022-09-12T12:29:35;3.73;;;3.43;;
4700;SDS011;8724;51.272;6.554;2022-09-12T12:32:19;3.10;;;2.80;;
4700;SDS011;8724;51.272;6.554;2022-09-12T12:34:50;3.00;;;2.60;;
4700;SDS011;8724;51.272;6.554;2022-09-12T12:37:53;2.50;;;2.30;;
4700;SDS011;8724;51.272;6.554;2022-09-12T12:40:26;3.67;;;2.50;;
4700;SDS011;8724;51.272;6.554;2022-09-12T12:43:01;2.83;;;2.63;;
4700;SDS011;8724;51.272;6.554;2022-09-12T12:45:44;3.43;;;3.10;;
4700;SDS011;8724;51.272;6.554;2022-09-12T12:48:32;3.73;;;2.93;;
4700;SDS011;8724;51.272;6.554;2022-09-12T12:51:33;3.07;;;2.80;;
4700;SDS011;8724;51.272;6.554;2022-09-12T12:54:26;2.80;;;2.53;;
4700;SDS011;8724;51.272;6.554;2022-09-12T12:57:14;3.37;;;3.07;;
4700;SDS011;8724;51.272;6.554;2022-09-12T12:59:53;2.40;;;2.27;;
4700;SDS011;8724;51.272;6.554;2022-09-12T13:02:26;2.77;;;2.30;;
4700;SDS011;8724;51.272;6.554;2022-09-12T13:04:58;8.83;;;7.27;;
4700;SDS011;8724;51.272;6.554;2022-09-12T13:07:30;28.13;;;25.20;;
4700;SDS011;8724;51.272;6.554;2022-09-12T13:10:03;21.47;;;19.27;;
4700;SDS011;8724;51.272;6.554;2022-09-12T13:12:35;20.47;;;16.80;;
4700;SDS011;8724;51.272;6.554;2022-09-12T13:18:24;11.03;;;10.03;;
4700;SDS011;8724;51.272;6.554;2022-09-12T13:20:58;9.63;;;8.73;;
4700;SDS011;8724;51.272;6.554;2022-09-12T13:23:30;8.30;;;7.30;;
4700;SDS011;8724;51.272;6.554;2022-09-12T13:26:07;6.47;;;5.93;;
4700;SDS011;8724;51.272;6.554;2022-09-12T13:28:39;7.17;;;6.27;;
4700;SDS011;8724;51.272;6.554;2022-09-12T13:31:10;5.47;;;5.07;;
4700;SDS011;8724;51.272;6.554;2022-09-12T13:33:50;4.97;;;4.47;;
4700;SDS011;8724;51.272;6.554;2022-09-12T13:36:32;4.90;;;4.40;;
4700;SDS011;8724;51.272;6.554;2022-09-12T13:39:15;5.90;;;4.13;;
4700;SDS011;8724;51.272;6.554;2022-09-12T13:41:53;3.90;;;3.60;;
4700;SDS011;8724;51.272;6.554;2022-09-12T13:44:40;4.10;;;3.80;;
4700;SDS011;8724;51.272;6.554;2022-09-12T13:47:12;4.00;;;3.70;;
4700;SDS011;8724;51.272;6.554;2022-09-12T13:49:46;4.40;;;4.00;;
4700;SDS011;8724;51.272;6.554;2022-09-12T13:52:17;3.57;;;3.27;;
4700;SDS011;8724;51.272;6.554;2022-09-12T13:54:49;3.00;;;2.80;;
4700;SDS011;8724;51.272;6.554;2022-09-12T13:57:29;3.10;;;2.80;;
4700;SDS011;8724;51.272;6.554;2022-09-12T14:00:02;2.80;;;2.60;;
4700;SDS011;8724;51.272;6.554;2022-09-12T14:02:34;2.60;;;2.40;;
4700;SDS011;8724;51.272;6.554;2022-09-12T14:05:11;2.90;;;2.70;;
4700;SDS011;8724;51.272;6.554;2022-09-12T14:07:50;2.77;;;2.57;;
4700;SDS011;8724;51.272;6.554;2022-09-12T14:10:27;3.00;;;2.87;;
4700;SDS011;8724;51.272;6.554;2022-09-12T14:13:00;3.10;;;2.90;;
4700;SDS011;8724;51.272;6.554;2022-09-12T14:15:31;2.23;;;2.03;;
4700;SDS011;8724;51.272;6.554;2022-09-12T14:18:04;3.00;;;2.80;;
4700;SDS011;8724;51.272;6.554;2022-09-12T14:20:35;3.07;;;2.83;;
4700;SDS011;8724;51.272;6.554;2022-09-12T14:23:05;2.40;;;1.93;;
4700;SDS011;8724;51.272;6.554;2022-09-12T14:25:43;6.10;;;5.50;;
4700;SDS011;8724;51.272;6.554;2022-09-12T14:28:15;32.10;;;28.43;;
4700;SDS011;8724;51.272;6.554;2022-09-12T14:33:47;15.10;;;13.50;;
4700;SDS011;8724;51.272;6.554;2022-09-12T14:36:21;10.67;;;9.57;;
4700;SDS011;8724;51.272;6.554;2022-09-12T14:38:53;8.37;;;7.57;;
4700;SDS011;8724;51.272;6.554;2022-09-12T14:41:25;7.33;;;6.63;;
4700;SDS011;8724;51.272;6.554;2022-09-12T14:43:59;6.07;;;5.47;;
4700;SDS011;8724;51.272;6.554;2022-09-12T14:46:31;4.97;;;4.47;;
4700;SDS011;8724;51.272;6.554;2022-09-12T14:49:05;3.90;;;3.60;;
4700;SDS011;8724;51.272;6.554;2022-09-12T14:51:37;4.03;;;3.33;;
4700;SDS011;8724;51.272;6.554;2022-09-12T14:57:29;3.50;;;3.20;;
4700;SDS011;8724;51.272;6.554;2022-09-12T15:00:18;3.00;;;2.80;;
4700;SDS011;8724;51.272;6.554;2022-09-12T15:02:50;3.47;;;3.17;;
4700;SDS011;8724;51.272;6.554;2022-09-12T15:05:24;3.20;;;2.90;;
4700;SDS011;8724;51.272;6.554;2022-09-12T15:07:56;2.70;;;2.50;;
4700;SDS011;8724;51.272;6.554;2022-09-12T15:10:27;2.10;;;2.00;;
4700;SDS011;8724;51.272;6.554;2022-09-12T15:13:14;4.50;;;2.87;;
4700;SDS011;8724;51.272;6.554;2022-09-12T15:15:48;2.50;;;2.40;;
4700;SDS011;8724;51.272;6.554;2022-09-12T15:18:19;2.93;;;2.73;;
4700;SDS011;8724;51.272;6.554;2022-09-12T15:20:50;3.20;;;2.30;;
4700;SDS011;8724;51.272;6.554;2022-09-12T15:23:32;2.50;;;2.30;;
4700;SDS011;8724;51.272;6.554;2022-09-12T15:26:04;2.07;;;1.97;;
4700;SDS011;8724;51.272;6.554;2022-09-12T15:28:34;2.03;;;1.90;;
4700;SDS011;8724;51.272;6.554;2022-09-12T15:31:05;2.30;;;2.10;;
4700;SDS011;8724;51.272;6.554;2022-09-12T15:33:37;2.60;;;2.40;;
4700;SDS011;8724;51.272;6.554;2022-09-12T15:36:11;2.43;;;2.23;;
4700;SDS011;8724;51.272;6.554;2022-09-12T15:38:42;2.53;;;2.33;;
4700;SDS011;8724;51.272;6.554;2022-09-12T15:41:11;4.10;;;2.30;;
4700;SDS011;8724;51.272;6.554;2022-09-12T15:43:42;5.07;;;4.57;;
4700;SDS011;8724;51.272;6.554;2022-09-12T15:46:12;8.63;;;7.73;;
4700;SDS011;8724;51.272;6.554;2022-09-12T15:48:42;8.77;;;7.90;;
4700;SDS011;8724;51.272;6.554;2022-09-12T15:51:11;8.40;;;7.60;;
4700;SDS011;8724;51.272;6.554;2022-09-12T15:53:41;9.27;;;8.37;;
4700;SDS011;8724;51.272;6.554;2022-09-12T15:56:10;9.20;;;8.37;;
4700;SDS011;8724;51.272;6.554;2022-09-12T15:58:38;7.33;;;6.63;;
4700;SDS011;8724;51.272;6.554;2022-09-12T16:01:24;6.73;;;6.13;;
4700;SDS011;8724;51.272;6.554;2022-09-12T16:03:53;6.50;;;5.80;;